Tiempo atmosférico en la estación meteorológica de Logroño Aeropuerto, La Rioja (353 m.)



Fecha
DESCASC
Temp. máxima en grados centígrados (hora)
DESCASC
Temp. mínima en grados centígrados (hora)
DESCASC
Temp. media en grados centígrados
DESCASC
Racha de viento máxima en m/sg (hora)
DESCASC
Velocidad máxima media en intervalos de 10 minutos(hora)
DESCASC
Precipitaciones diarias en mm
DESCASC
Precipitaciones de 00:00 a 06:00 en mm
DESCASC
Precipitaciones de 06:00 a 12:00 en mm
DESCASC
Precipitaciones de 12:00 a 18:00 en mm
DESCASC
Precipitaciones de 18:00 a 24:00 en mm
DESCASC
15-07-2018 31.9 (17:10) 17.4 (06:40) 24.6 13.33 (20:50) 7.22 (20:50) 2.9 0 0 0 2.9
14-07-2018 31.5 (17:00) 16.3 (07:10) 23.9 7.78 (01:50) 4.44 (01:30) 1.1 1.1 0 0 0
13-07-2018 29.9 (15:10) 16 (07:00) 22.9 16.11 (18:00) 7.5 (15:30) 11.2 0 0 2.6 8.6
12-07-2018 28.3 (18:10) 17 (00:00) 22.6 5.83 (19:50) 3.33 (11:40) 0 0 0 0 0
11-07-2018 27.8 (14:00) 16.2 (00:00) 22 12.78 (14:50) 7.78 (14:50) 0 0 0 0 0
10-07-2018 30 (16:10) 16.8 (00:00) 23.4 7.22 (19:00) 4.44 (15:30) 0 0 0 0 0
09-07-2018 29.9 (16:00) 16.9 (00:00) 23.4 7.22 (19:40) 4.17 (08:20) 0 0 0 0 0
08-07-2018 31.3 (17:30) 17.8 (07:00) 24.5 12.5 (21:50) 6.94 (22:00) 6.8 6 0.2 0 0.6
07-07-2018 30.9 (15:20) 17.1 (00:00) 24 11.39 (17:30) 7.22 (17:30) 2.1 0.2 0 0.1 1.8
06-07-2018 28.9 (17:20) 17.5 (00:00) 23.2 5.83 (19:40) 3.61 (22:50) 0 0 0 0 0
05-07-2018 26 (15:20) 17.6 (06:30) 21.8 8.89 (17:40) 5.56 (19:00) 0 0 0 0 0
04-07-2018 31.2 (15:20) 18.5 (23:50) 24.9 16.11 (16:50) 9.17 (16:50) 6.5 0 0 6.5 0
03-07-2018 31.8 (18:30) 15.7 (04:10) 23.7 6.67 (09:20) 4.17 (10:00) 0 0 0 0 0
02-07-2018 30.4 (17:10) 16.1 (06:40) 23.3 10.28 (00:30) 6.11 (00:40) 0 0 0 0 0
01-07-2018 31.9 (17:00) 16.7 (00:00) 24.3 8.89 (23:40) 5.83 (23:40) 0 0 0 0 0
30-06-2018 30.1 (16:00) 17 (07:00) 23.6 11.39 (09:50) 8.33 (10:00) 2.8 0.3 0 1 1.5
29-06-2018 29.1 (15:20) 17.3 (00:00) 23.2 12.78 (18:20) 7.22 (15:30) 2.2 1.2 0.1 0 0.9
28-06-2018 27.8 (17:00) 18.2 (00:00) 23 8.89 (15:10) 5.28 (14:30) 0 0 0 0 0
27-06-2018 30.3 (15:30) 17.8 (00:00) 24 11.39 (17:20) 6.67 (17:20) 0 0 0 0 0
26-06-2018 33.7 (19:00) 14.5 (00:00) 24.1 6.67 (13:20) 3.89 (12:20) 0 0 0 0 0
25-06-2018 34.2 (19:10) 14.9 (00:00) 24.6 5 (21:10) 3.33 (08:00) 0 0 0 0 0
24-06-2018 33.1 (19:10) 11.2 (00:00) 22.1 5 (22:10) 3.89 (22:10) 0 0 0 0 0
23-06-2018 30.5 (17:30) 14.9 (00:00) 22.7 6.11 (09:00) 4.17 (09:10) 0 0 0 0 0
22-06-2018 27.9 (17:50) 18.2 (23:40) 23.1 7.78 (03:40) 5 (03:40) 0 0 0 0 0
21-06-2018 33.5 (16:40) 15.3 (00:00) 24.4 8.33 (18:30) 4.72 (18:30) 0 0 0 0 0
20-06-2018 31.6 (17:00) 14.5 (00:00) 23.1 10.83 (16:00) 6.67 (15:50) 0 0 0 0 0
19-06-2018 29.7 (18:40) 13.7 (00:00) 21.7 6.67 (20:00) 4.44 (20:00) 0 0 0 0 0
18-06-2018 23.7 (16:50) 13.3 (00:00) 18.5 9.17 (19:10) 5 (20:00) 0 0 0 0 0
17-06-2018 25.3 (17:20) 12.5 (00:00) 18.9 8.33 (19:20) 5 (11:00) 0 0 0 0 0

Gráficas

Temp. máximas Temp. mínimas Temp. medias Precipitaciones Rachas de viento máximas Velocidades máximas media en intervalos de 10 minutos

Datos horarios

Fecha y hora oficial Temperatura (ºC) Velocidad del viento (km/h) Dirección del viento Racha (km/h) Dirección de racha Precipitación (mm) Presión (hPa) Tendencia (hPa) Humedad (%)
2018-07-16 23:00:00 18.7 3 Sudoeste 11 Norte 0 979.4 1 75
2018-07-16 22:00:00 19.5 6 Oeste 15 Noroeste 0 979 1.1 72
2018-07-16 21:00:00 22.4 5 Norte 21 Norte 0 978.8 0.7 61
2018-07-16 20:00:00 22.6 11 Norte 24 Norte 0 978.4 0.3 59
2018-07-16 19:00:00 23.6 11 Noroeste 22 Noroeste 0 977.9 0.1 56
2018-07-16 18:00:00 23.5 14 Norte 26 Norte 0 978.1 0.2 58
2018-07-16 17:00:00 22.7 9 Oeste 28 Oeste 0 978.1 0.3 59
2018-07-16 16:00:00 23.6 14 Oeste 30 Noroeste 0 977.8 1 56
2018-07-16 15:00:00 23 20 Oeste 33 Oeste 0 977.9 1.3 58
2018-07-16 14:00:00 21.9 20 Oeste 33 Oeste 0 977.8 1.4 63
2018-07-16 13:00:00 22.9 18 Noroeste 32 Norte 0 976.8 0.8 57
2018-07-16 12:00:00 22.6 12 Oeste 32 Noroeste 0 976.6 1.2 59
2018-07-16 11:00:00 21.8 10 Oeste 21 Oeste 0 976.4 1 66
2018-07-16 10:00:00 20.3 15 Oeste 24 Oeste 0 976 1.4 70
2018-07-16 09:00:00 18.9 12 Oeste 22 Oeste 0 975.4 1.1 81
2018-07-16 08:00:00 18.6 9 Oeste 22 Oeste 0 975.4 1.2 83
2018-07-16 07:00:00 18.5 13 Oeste 22 Oeste 0 974.6 0.5 83
2018-07-16 06:00:00 18.7 12 Oeste 21 Sudoeste 0 974.3 -0.2 83
2018-07-16 05:00:00 18.4 14 Oeste 24 Sudoeste 0 974.2 -0.4 84
2018-07-16 04:00:00 18.2 12 Oeste 18 Sudoeste 0 974.1 -0.1 84
2018-07-16 03:00:00 18.2 7 Oeste 17 Sudoeste 0 974.5 0.1 87
2018-07-16 02:00:00 18.6 10 Oeste 28 Oeste 0 974.6 0.1 85
2018-07-16 01:00:00 18.7 16 Oeste 28 Sudoeste 0 974.2 0.6 85
2018-07-16 00:00:00 18.9 15 Oeste 24 Oeste 0 974.4 1.7 85
2018-07-15 23:00:00 19.1 12 Oeste 21 Oeste 0 974.5 4.4 86
2018-07-15 22:00:00 19 12 Oeste 41 Oeste 0.5 973.6 3.9 86
2018-07-15 21:00:00 20.8 23 Oeste 48 Oeste 2.4 972.7 2.6 74
2018-07-15 20:00:00 27.7 13 Norte 26 Norte 0 970.1 -0.2 55
2018-07-15 19:00:00 30.3 12 Oeste 22 Sudoeste 0 969.7 -1.4 45
2018-07-15 18:00:00 31.5 9 Oeste 15 Noroeste 0 970.1 -1.6 36
2018-07-15 17:00:00 31.6 3 Norte 11 Sudoeste 0 970.3 -2.2 30
2018-07-15 16:00:00 31.2 5 Oeste 11 Oeste 0 971.1 -2 33
2018-07-15 15:00:00 29.6 6 Oeste 13 Oeste 0 971.7 -1.7 40
2018-07-15 14:00:00 28.6 5 Sur 13 Sudeste 0 972.5 -1.2 48
2018-07-15 13:00:00 26.9 8 Oeste 15 Oeste 0 973.1 -1 53
2018-07-15 12:00:00 25.5 9 Oeste 15 Oeste 0 973.4 -0.7 63
2018-07-15 11:00:00 24.1 10 Oeste 17 Oeste 0 973.7 -0.2 68
2018-07-15 10:00:00 22.3 10 Oeste 17 Sudoeste 0 974.1 0.5 76
2018-07-15 09:00:00 20.1 9 Oeste 15 Oeste 0 974.1 0.7 84
2018-07-15 08:00:00 18.6 7 Oeste 11 Oeste 0 973.9 0.3 89
2018-07-15 07:00:00 17.5 4 Noroeste 13 Sudoeste 0 973.6 -0.2 93
2018-07-15 06:00:00 17.7 7 Oeste 9 Oeste 0 973.4 -0.3 95
2018-07-15 05:00:00 18.1 0 Calma 8 Oeste 0 973.6 0.2 94
2018-07-15 04:00:00 19 4 Oeste 13 Oeste 0 973.8 0.2 92
2018-07-15 03:00:00 19.1 7 Oeste 9 Sudoeste 0 973.7 0 91
2018-07-15 02:00:00 19.5 6 Oeste 11 Sudoeste 0 973.4 -0.1 86
2018-07-15 01:00:00 19.4 3 Oeste 11 Oeste 0 973.6 1.4 85
2018-07-15 00:00:00 21 5 Sudoeste 13 Sudeste 0 973.7 2.4 74
2018-07-14 23:00:00 23.1 8 Este 18 Sudeste 0 973.5 2.8 64
2018-07-14 22:00:00 24.6 4 Sudeste 18 Norte 0 972.2 1.2 58
2018-07-14 21:00:00 26.7 9 Norte 24 Norte 0 971.3 -0.4 57
2018-07-14 20:00:00 27.9 5 Noroeste 5 Noroeste 0 970.7 -1.7 66
2018-07-14 19:00:00 30.2 0 Calma 11 Sudeste 0 971 -1.9 56
2018-07-14 18:00:00 31.4 7 Este 15 Este 0 971.7 -2 41
2018-07-14 17:00:00 31.4 4 Este 15 Este 0 972.4 -2 43
2018-07-14 16:00:00 30.2 11 Este 18 Este 0 972.9 -2 49
2018-07-14 15:00:00 29.2 8 Este 15 Sudeste 0 973.7 -1.6 50
2018-07-14 14:00:00 27.9 8 Nordeste 15 Norte 0 974.4 -1 56
2018-07-14 13:00:00 26.8 8 Este 15 Este 0 974.9 -0.4 56
2018-07-14 12:00:00 25.7 7 Este 13 Sudeste 0 975.3 0.3 60
2018-07-14 11:00:00 24.5 3 Norte 9 Norte 0 975.4 0.7 66
2018-07-14 10:00:00 23.1 0 Calma 9 Este 0 975.3 0.7 71
2018-07-14 09:00:00 20.9 5 Sudeste 9 Este 0 975 0.1 83
2018-07-14 08:00:00 18.3 0 Calma 5 Nordeste 0 974.7 -0.5 95
2018-07-14 07:00:00 16.5 3 Nordeste 5 Nordeste 0 974.6 -1 96
2018-07-14 06:00:00 17.4 0 Calma 8 Este 0 974.9 -1.2 96
2018-07-14 05:00:00 17.6 2 Nordeste 11 Nordeste 0 975.2 -1.4 95
2018-07-14 04:00:00 19 4 Oeste 15 Sudoeste 0 975.6 -0.5 93
2018-07-14 03:00:00 19.4 10 Oeste 17 Oeste 0.7 976.1 0.3 93
2018-07-14 02:00:00 19.5 14 Oeste 28 Oeste 0.1 976.6 1.3 94
2018-07-14 01:00:00 19.3 9 Oeste 15 Oeste 0.3 976.1 1.3 95
2018-07-14 00:00:00 19.1 4 Oeste 9 Norte 0 975.8 1.7 95
2018-07-13 23:00:00 19.4 0 Calma 9 Oeste 0 975.3 1.5 92
2018-07-13 22:00:00 20.5 6 Sudoeste 13 Oeste 0 974.8 0.9 84
2018-07-13 21:00:00 20.7 0 Calma 13 Oeste 0.1 974.1 0.4 85
2018-07-13 20:00:00 21.1 6 Sudeste 30 Sur 0 973.8 1.1 78
2018-07-13 19:00:00 19.4 15 Este 46 Sur 8.5 973.9 0.7 85
2018-07-13 18:00:00 23.1 27 Oeste 58 Oeste 2.6 973.7 -0.5 76
2018-07-13 17:00:00 28.7 17 Nordeste 24 Nordeste 0 972.7 -2.1 47
2018-07-13 16:00:00 28.4 19 Este 35 Este 0 973.2 -2 50
2018-07-13 15:00:00 28.9 24 Este 35 Este 0 974.2 -1.5 48
2018-07-13 14:00:00 28.2 25 Este 33 Este 0 974.8 -1 51
2018-07-13 13:00:00 26.8 19 Este 32 Este 0 975.2 -0.9 56
2018-07-13 12:00:00 25.6 18 Este 30 Este 0 975.7 -0.4 56
2018-07-13 11:00:00 24 10 Este 18 Nordeste 0 975.8 -0.2 59
2018-07-13 10:00:00 22.5 5 Nordeste 9 Nordeste 0 976.1 0.2 64
2018-07-13 09:00:00 19.8 7 Oeste 9 Oeste 0 976.1 0 77
2018-07-13 08:00:00 17.6 5 Oeste 8 Noroeste 0 976 0.3 89
2018-07-13 07:00:00 16 0 Calma 8 Norte 0 975.9 0.2 92
2018-07-13 06:00:00 17.2 0 Calma 8 Sudoeste 0 976.1 0.5 87
2018-07-13 05:00:00 17.6 0 Calma 9 Oeste 0 975.7 0 87
2018-07-13 04:00:00 18.9 3 Oeste 17 Oeste 0 975.7 -0.4 80
2018-07-13 03:00:00 19.6 11 Oeste 17 Oeste 0 975.6 -0.3 77
2018-07-13 02:00:00 19.9 10 Oeste 13 Oeste 0 975.7 0.4 77
2018-07-13 01:00:00 20.1 2 Oeste 9 Oeste 0 976.1 1.6 75
2018-07-13 00:00:00 20.8 6 Sur 9 Sudoeste 0 975.9 1.7 70
2018-07-12 23:00:00 20.8 0 Calma 9 Este 0 975.3 1.5 74
2018-07-12 22:00:00 22.2 5 Oeste 8 Noroeste 0 974.5 1 69
2018-07-12 21:00:00 24.8 0 Calma 15 Noroeste 0 974.2 0.9 56
2018-07-12 20:00:00 26.1 10 Noroeste 21 Norte 0 973.8 0.2 51
2018-07-12 19:00:00 26.8 10 Noroeste 18 Oeste 0 973.5 -0.3 49
2018-07-12 18:00:00 27.3 10 Nordeste 17 Nordeste 0 973.3 -0.7 47
2018-07-12 17:00:00 26.8 2 Oeste 17 Nordeste 0 973.6 -1 50
2018-07-12 16:00:00 27.1 6 Nordeste 15 Nordeste 0 973.8 -0.9 47
2018-07-12 15:00:00 27.7 5 Oeste 15 Oeste 0 974 -0.8 48
2018-07-12 14:00:00 26.3 10 Oeste 18 Oeste 0 974.6 -0.1 51
2018-07-12 13:00:00 24.9 7 Oeste 18 Oeste 0 974.7 0 56
2018-07-12 12:00:00 24.8 10 Oeste 18 Oeste 0 974.8 0.4 60
2018-07-12 11:00:00 23.6 7 Oeste 17 Oeste 0 974.7 0.5 63
2018-07-12 10:00:00 22.1 6 Oeste 13 Oeste 0 974.7 0.9 72
2018-07-12 09:00:00 19.3 5 Oeste 11 Oeste 0 974.4 0.9 81
2018-07-12 08:00:00 17.4 9 Oeste 13 Oeste 0 974.2 0.9 88
2018-07-12 07:00:00 17 7 Oeste 9 Oeste 0 973.8 0.4 89
2018-07-12 06:00:00 17.5 3 Oeste 11 Oeste 0 973.5 -0.2 86
2018-07-12 05:00:00 17.6 6 Oeste 9 Oeste 0 973.3 -0.5 89
2018-07-12 04:00:00 18.2 7 Oeste 15 Oeste 0 973.4 -0.4 87
2018-07-12 03:00:00 18.5 5 Oeste 13 Oeste 0 973.7 0.1 86
2018-07-12 02:00:00 19.7 8 Oeste 11 Oeste 0 973.8 0.7 79
2018-07-12 01:00:00 21.2 5 Oeste 13 Oeste 0 973.8 1.2 72
2018-07-12 00:00:00 21.3 9 Oeste 13 Oeste 0 973.6 1.8 71
2018-07-11 23:00:00 22.1 6 Oeste 17 Oeste 0 973.1 1.5 66
2018-07-11 22:00:00 22.7 9 Oeste 15 Oeste 0 972.6 0.6 63
2018-07-11 21:00:00 24.3 10 Oeste 18 Oeste 0 971.8 -0.8 54
2018-07-11 20:00:00 25 10 Oeste 17 Oeste 0 971.6 -0.8 51
2018-07-11 19:00:00 26.8 11 Oeste 17 Oeste 0 972 -1.4 46
2018-07-11 18:00:00 25.9 13 Oeste 30 Sudoeste 0 972.6 -1.8 49
2018-07-11 17:00:00 25.1 17 Oeste 39 Oeste 0 972.4 -1.1 51
2018-07-11 16:00:00 25.7 15 Noroeste 33 Norte 0 973.4 0.4 48
2018-07-11 15:00:00 25.4 18 Oeste 46 Oeste 0 974.4 0.9 50
2018-07-11 14:00:00 27.5 16 Oeste 30 Oeste 0 973.5 -0.6 44
2018-07-11 13:00:00 26.4 10 Oeste 17 Oeste 0 973 -1.7 46
2018-07-11 12:00:00 24.5 10 Oeste 18 Oeste 0 973.5 -1.4 50
2018-07-11 11:00:00 23.2 11 Oeste 18 Oeste 0 974.1 -1.1 58
2018-07-11 10:00:00 21.3 11 Oeste 21 Oeste 0 974.7 -0.5 68
2018-07-11 09:00:00 19.1 12 Oeste 17 Oeste 0 974.9 -0.4 76
2018-07-11 08:00:00 17.7 12 Oeste 17 Oeste 0 975.2 -0.2 80
2018-07-11 07:00:00 16.2 9 Oeste 13 Oeste 0 975.2 -0.4 88
2018-07-11 06:00:00 16.7 7 Oeste 13 Oeste 0 975.3 -0.7 88
2018-07-11 05:00:00 17.3 10 Oeste 15 Oeste 0 975.4 -0.7 86
2018-07-11 04:00:00 17.3 8 Oeste 13 Oeste 0 975.6 -0.5 87
2018-07-11 03:00:00 17.6 5 Oeste 11 Oeste 0 976 -0.1 86
2018-07-11 02:00:00 18.7 7 Oeste 11 Oeste 0 976.1 0.1 81
2018-07-11 01:00:00 19.6 2 Oeste 15 Oeste 0 976.1 0.6 76
2018-07-11 00:00:00 21 9 Oeste 13 Oeste 0 976.1 0.9 67
2018-07-10 23:00:00 21.8 7 Oeste 11 Oeste 0 976 1.1 65
2018-07-10 22:00:00 23.5 8 Oeste 11 Sudoeste 0 975.5 0.8 59
2018-07-10 21:00:00 26.2 8 Noroeste 24 Norte 0 975.2 0.5 49
2018-07-10 20:00:00 27.3 13 Noroeste 26 Noroeste 0 974.9 0.1 47
2018-07-10 19:00:00 28.6 13 Noroeste 26 Oeste 0 974.7 -0.5 43
2018-07-10 18:00:00 29.5 9 Oeste 22 Oeste 0 974.7 -0.7 40
2018-07-10 17:00:00 29.2 13 Oeste 21 Oeste 0 974.8 -1.1 41
2018-07-10 16:00:00 28.5 8 Noroeste 24 Sudoeste 0 975.2 -1.1 43
2018-07-10 15:00:00 28.8 13 Oeste 24 Oeste 0 975.4 -1.5 40
2018-07-10 14:00:00 28.1 11 Oeste 24 Oeste 0 975.9 -1.4 44
2018-07-10 13:00:00 27 13 Oeste 22 Oeste 0 976.3 -1.2 49
2018-07-10 12:00:00 25.5 15 Oeste 24 Oeste 0 976.9 -1 52
2018-07-10 11:00:00 24 13 Oeste 21 Oeste 0 977.3 -0.6 57
2018-07-10 10:00:00 21.8 13 Oeste 18 Oeste 0 977.5 -0.3 65
2018-07-10 09:00:00 19.7 12 Oeste 17 Oeste 0 977.9 0.1 72
2018-07-10 08:00:00 18 11 Oeste 17 Oeste 0 977.9 0.3 77
2018-07-10 07:00:00 16.8 10 Oeste 15 Oeste 0 977.8 0 81
2018-07-10 06:00:00 17.2 3 Oeste 13 Oeste 0 977.8 -0.1 80
2018-07-10 05:00:00 17.9 11 Oeste 17 Oeste 0 977.6 -0.7 77
2018-07-10 04:00:00 17.9 8 Oeste 13 Oeste 0 977.8 -0.8 77
2018-07-10 03:00:00 18.6 11 Oeste 17 Oeste 0 977.9 -1 75
2018-07-10 02:00:00 18 0 Calma 9 Oeste 0 978.3 -0.5 79
2018-07-10 01:00:00 19.9 6 Oeste 13 Oeste 0 978.6 0.4 72
2018-07-10 00:00:00 20.3 8 Oeste 13 Sudoeste 0 978.9 1.2 70
2018-07-09 23:00:00 21.1 7 Oeste 9 Oeste 0 978.8 1.7 68
2018-07-09 22:00:00 23.7 0 Calma 17 Noroeste 0 978.2 1.5 56
2018-07-09 21:00:00 26.3 10 Norte 22 Norte 0 977.7 1 44
2018-07-09 20:00:00 27.9 12 Norte 26 Norte 0 977.1 0.4 38
2018-07-09 19:00:00 28.3 13 Noroeste 24 Noroeste 0 976.7 -0.3 37
2018-07-09 18:00:00 29.1 13 Noroeste 24 Noroeste 0 976.7 -0.8 38
2018-07-09 17:00:00 28.6 11 Noroeste 24 Norte 0 976.7 -1 41
2018-07-09 16:00:00 29.7 9 Noroeste 18 Noroeste 0 977 -1.4 40
2018-07-09 15:00:00 29.2 11 Noroeste 22 Oeste 0 977.5 -1.2 40
2018-07-09 14:00:00 28.6 11 Oeste 22 Oeste 0 977.7 -1.5 49
2018-07-09 13:00:00 27.1 14 Oeste 21 Oeste 0 978.4 -1 53
2018-07-09 12:00:00 25.7 13 Oeste 21 Oeste 0 978.7 -0.8 58
2018-07-09 11:00:00 23.7 11 Oeste 21 Oeste 0 979.2 -0.2 69
2018-07-09 10:00:00 22 11 Oeste 18 Oeste 0 979.4 0.1 74
2018-07-09 09:00:00 20 11 Oeste 22 Oeste 0 979.5 0.2 78
2018-07-09 08:00:00 18.3 12 Oeste 18 Oeste 0 979.4 0.3 83
2018-07-09 07:00:00 17.2 12 Oeste 18 Oeste 0 979.3 0.2 87
2018-07-09 06:00:00 17.1 10 Oeste 17 Oeste 0 979.3 0.2 88
2018-07-09 05:00:00 17.1 12 Oeste 18 Oeste 0 979.1 -0.2 89
2018-07-09 04:00:00 17.6 13 Oeste 18 Oeste 0 979.1 -0.4 90
2018-07-09 03:00:00 17.7 10 Oeste 17 Oeste 0 979.1 -0.4 89
2018-07-09 02:00:00 18.1 12 Oeste 15 Oeste 0 979.3 -0.8 88
2018-07-09 01:00:00 18.5 9 Oeste 15 Oeste 0 979.5 0.7 85
2018-07-09 00:00:00 18.9 11 Oeste 17 Oeste 0 979.5 2.3 84
2018-07-08 23:00:00 19.6 14 Sudoeste 33 Oeste 0 980.1 3.2 80
2018-07-08 22:00:00 20.5 25 Oeste 45 Oeste 0.5 978.8 3.2 81
2018-07-08 21:00:00 23.5 14 Oeste 33 Sur 0.1 977.2 1.2 70
2018-07-08 20:00:00 26.8 17 Sudoeste 30 Sur 0 976.9 0.6 50
2018-07-08 19:00:00 29 17 Sur 24 Sur 0 975.6 -1.3 40
2018-07-08 18:00:00 30.2 7 Sur 21 Este 0 976 -1.4 33
2018-07-08 17:00:00 31.1 10 Este 18 Sudeste 0 976.3 -1.8 32
2018-07-08 16:00:00 30 9 Nordeste 18 Este 0 976.9 -1.6 39
2018-07-08 15:00:00 28.9 8 Este 15 Este 0 977.4 -1.5 46
2018-07-08 14:00:00 27.4 3 Nordeste 15 Este 0 978.1 -0.5 48
2018-07-08 13:00:00 26 4 Nordeste 13 Nordeste 0 978.5 -0.2 54
2018-07-08 12:00:00 24.2 4 Oeste 11 Oeste 0 978.9 0.5 64
2018-07-08 11:00:00 22.5 4 Oeste 11 Oeste 0 978.6 0.8 71
2018-07-08 10:00:00 20.5 7 Oeste 13 Oeste 0 978.7 0.2 84
2018-07-08 09:00:00 18.4 6 Noroeste 15 Oeste 0.1 978.4 -0.7 94
2018-07-08 08:00:00 17.9 12 Este 18 Sudeste 0.1 977.8 -1.6 95
2018-07-08 07:00:00 17.9 7 Este 13 Sur 0 978.5 0.6 93
2018-07-08 06:00:00 17.9 3 Sudoeste 15 Sudoeste 1 979.1 2.2 93
2018-07-08 05:00:00 18.3 4 Sudoeste 17 Oeste 0 979.4 2.9 89
2018-07-08 04:00:00 18.6 12 Este 26 Sudeste 0 977.9 -0.9 86
2018-07-08 03:00:00 18.5 5 Sudoeste 32 Oeste 0.6 976.9 -1.7 87
2018-07-08 02:00:00 18.7 23 Este 30 Este 2.9 976.5 -2.4 84
2018-07-08 01:00:00 19.1 12 Oeste 28 Oeste 1.5 978.8 1 84
2018-07-08 00:00:00 20.2 13 Oeste 24 Sudoeste 0.3 978.6 0.8 86
2018-07-07 23:00:00 19.8 12 Oeste 21 Sudoeste 0 978.9 3.1 91
2018-07-07 22:00:00 20.5 8 Sudoeste 15 Sudoeste 0.2 977.8 2.2 87
2018-07-07 21:00:00 20.8 5 Sudoeste 13 Oeste 1.3 977.8 1.4 85
2018-07-07 20:00:00 22 12 Oeste 32 Oeste 0 975.8 0.2 77
2018-07-07 19:00:00 22.6 13 Oeste 22 Oeste 0 975.6 0.3 74
2018-07-07 18:00:00 22 6 Oeste 41 Oeste 0 976.4 0.6 72
2018-07-07 17:00:00 26.4 7 Sur 26 Sudeste 0.1 975.6 -0.9 52
2018-07-07 16:00:00 30 16 Este 28 Este 0 975.3 -1.7 34
2018-07-07 15:00:00 30.1 15 Este 28 Este 0 975.8 -1.7 35
2018-07-07 14:00:00 29 13 Este 22 Este 0 976.5 -1.5 39
2018-07-07 13:00:00 27.6 10 Este 22 Este 0 977 -1.4 44
2018-07-07 12:00:00 25.6 13 Este 22 Este 0 977.5 -1.1 49
2018-07-07 11:00:00 24.4 10 Este 18 Este 0 978 -0.7 50
2018-07-07 10:00:00 22.1 8 Nordeste 15 Nordeste 0 978.4 -0.2 64
2018-07-07 09:00:00 20.4 5 Nordeste 11 Este 0 978.6 -0.6 69
2018-07-07 08:00:00 17.2 4 Este 9 Nordeste 0 978.7 -0.4 91
2018-07-07 07:00:00 17.4 0 Calma 11 Oeste 0 978.6 -0.3 89
2018-07-07 06:00:00 17.3 7 Oeste 26 Sudoeste 0.1 979.2 0.1 90
2018-07-07 05:00:00 18 12 Oeste 22 Oeste 0.1 979.1 -0.4 82
2018-07-07 04:00:00 17.6 6 Oeste 8 Oeste 0 978.9 -0.6 81
2018-07-07 03:00:00 17.4 3 Oeste 5 Oeste 0 979.1 -0.3 84
2018-07-07 02:00:00 18.2 0 Calma 11 Sudeste 0 979.5 0.5 77
2018-07-07 01:00:00 18.9 8 Este 15 Sudeste 0 979.5 1.6 71
2018-07-07 00:00:00 20 9 Este 15 Este 0 979.4 2.2 67
2018-07-06 23:00:00 21.2 12 Este 17 Este 0 979 2.4 61
2018-07-06 22:00:00 22.2 11 Este 17 Norte 0 977.9 1.3 59
2018-07-06 21:00:00 25.3 6 Noroeste 18 Norte 0 977.2 0.2 50
2018-07-06 20:00:00 27.4 7 Noroeste 21 Norte 0 976.6 -0.8 44
2018-07-06 19:00:00 27.2 6 Oeste 17 Oeste 0 976.6 -1.4 43
2018-07-06 18:00:00 28.6 9 Oeste 17 Oeste 0 977 -1.6 37
2018-07-06 17:00:00 28.3 2 Noroeste 13 Sur 0 977.4 -2 36
2018-07-06 16:00:00 27.4 4 Oeste 13 Oeste 0 978 -1.9 38
2018-07-06 15:00:00 26.1 6 Oeste 13 Oeste 0 978.6 -1.7 42
2018-07-06 14:00:00 24.9 6 Noroeste 15 Este 0 979.4 -1.1 42
2018-07-06 13:00:00 23.8 5 Sudoeste 13 Oeste 0 979.9 -0.9 46
2018-07-06 12:00:00 22.8 2 Oeste 17 Oeste 0 980.3 -0.5 48
2018-07-06 11:00:00 22.2 5 Oeste 13 Oeste 0 980.5 -0.2 51
2018-07-06 10:00:00 20.1 5 Oeste 13 Oeste 0 980.8 0.3 61
2018-07-06 09:00:00 18.7 3 Oeste 5 Oeste 0 980.8 0.5 70
2018-07-06 08:00:00 18 2 Oeste 8 Oeste 0 980.7 0.3 72
2018-07-06 07:00:00 17.6 4 Oeste 8 Oeste 0 980.5 0 74
2018-07-06 06:00:00 17.7 0 Calma 8 Sudoeste 0 980.3 -0.5 73
2018-07-06 05:00:00 17.9 4 Oeste 9 Oeste 0 980.4 -0.6 73
2018-07-06 04:00:00 17.8 3 Este 8 Este 0 980.5 -0.8 75
2018-07-06 03:00:00 17.8 0 Calma 11 Oeste 0 980.8 -0.4 73
2018-07-06 02:00:00 18.1 8 Oeste 13 Oeste 0 981 0.4 70
2018-07-06 01:00:00 18 7 Oeste 13 Oeste 0 981.3 1.4 71
2018-07-06 00:00:00 18.4 5 Oeste 11 Oeste 0 981.2 2 71
2018-07-05 23:00:00 18.9 5 Oeste 11 Noroeste 0 980.6 2 69
2018-07-05 22:00:00 19.3 4 Oeste 24 Norte 0 979.9 1.6 65
2018-07-05 21:00:00 21.3 8 Noroeste 26 Norte 0 979.2 0.8 58
2018-07-05 20:00:00 22.6 14 Norte 30 Nordeste 0 978.6 0.4 54
2018-07-05 19:00:00 24 20 Norte 32 Norte 0 978.3 0 49
2018-07-05 18:00:00 24.7 13 Norte 32 Norte 0 978.4 0 47
2018-07-05 17:00:00 24.1 12 Noroeste 26 Noroeste 0 978.2 -0.5 48
2018-07-05 16:00:00 24.4 10 Noroeste 22 Norte 0 978.3 -1 46
2018-07-05 15:00:00 25.4 8 Oeste 22 Norte 0 978.4 -1.1 45
2018-07-05 14:00:00 24 14 Oeste 22 Oeste 0 978.7 -0.7 47
2018-07-05 13:00:00 23.3 10 Noroeste 21 Noroeste 0 979.3 0 52
2018-07-05 12:00:00 21.9 12 Noroeste 21 Oeste 0 979.5 0.5 55
2018-07-05 11:00:00 20.8 9 Noroeste 17 Noroeste 0 979.4 0.9 60
2018-07-05 10:00:00 20.4 11 Noroeste 15 Oeste 0 979.3 1.4 64
2018-07-05 09:00:00 18.3 8 Oeste 17 Sudoeste 0 979 1.3 76
2018-07-05 08:00:00 17.8 8 Oeste 13 Oeste 0 978.5 1 73
2018-07-05 07:00:00 17.7 10 Oeste 15 Sudoeste 0 977.9 0.4 81
2018-07-05 06:00:00 17.8 8 Oeste 13 Oeste 0 977.7 0.1 81
2018-07-05 05:00:00 17.8 6 Oeste 18 Noroeste 0 977.5 -0.1 82
2018-07-05 04:00:00 17.9 6 Oeste 11 Oeste 0 977.5 0 81
2018-07-05 03:00:00 18 6 Oeste 11 Oeste 0 977.6 0.6 78
2018-07-05 02:00:00 18.4 8 Oeste 15 Oeste 0 977.6 1.1 78
2018-07-05 01:00:00 18.7 9 Oeste 15 Oeste 0 977.5 2.1 82
2018-07-05 00:00:00 18.5 13 Oeste 24 Oeste 0 977 2.4 82
2018-07-04 23:00:00 18.8 12 Oeste 21 Sudoeste 0 976.5 3 82
2018-07-04 22:00:00 19.5 9 Oeste 22 Oeste 0 975.4 2.9 74
2018-07-04 21:00:00 20.5 9 Oeste 22 Noroeste 0 974.6 2.3 74
2018-07-04 20:00:00 21.8 13 Oeste 35 Oeste 0 973.5 2.9 72
2018-07-04 19:00:00 21.8 17 Oeste 26 Oeste 0 972.5 4.6 77
2018-07-04 18:00:00 19.3 13 Oeste 28 Sudoeste 5.4 972.3 3.2 87
2018-07-04 17:00:00 20.2 22 Noroeste 58 Oeste 1.1 970.6 0.7 83
2018-07-04 16:00:00 29.8 9 Noroeste 21 Nordeste 0 967.9 -2.8 48
2018-07-04 15:00:00 29.9 10 Nordeste 24 Nordeste 0 969.1 -2.1 47
2018-07-04 14:00:00 28.1 16 Este 24 Este 0 969.9 -2 49
2018-07-04 13:00:00 27.9 15 Este 22 Este 0 970.7 -1.8 49
2018-07-04 12:00:00 25.8 10 Este 21 Este 0 971.2 -1.7 54
2018-07-04 11:00:00 26 6 Este 13 Este 0 971.9 -1.1 57
2018-07-04 10:00:00 24.2 0 Calma 9 Norte 0 972.5 -0.6 64
2018-07-04 09:00:00 22.6 0 Calma 5 Noroeste 0 972.9 -0.3 71
2018-07-04 08:00:00 21.6 0 Calma 5 Norte 0 973 -0.6 75
2018-07-04 07:00:00 19.9 5 Oeste 9 Oeste 0 973.1 -0.8 84
2018-07-04 06:00:00 20 0 Calma 11 Oeste 0 973.2 -1 82
2018-07-04 05:00:00 20.1 8 Oeste 11 Oeste 0 973.6 -0.9 82
2018-07-04 04:00:00 20 7 Oeste 11 Oeste 0 973.9 -0.2 81
2018-07-04 03:00:00 19.5 6 Oeste 11 Oeste 0 974.2 0.3 84
2018-07-04 02:00:00 20.2 3 Oeste 11 Oeste 0 974.5 1.3 80
2018-07-04 01:00:00 20.8 2 Noroeste 11 Noroeste 0 974.1 1.8 76
2018-07-04 00:00:00 21.8 7 Oeste 15 Norte 0 973.9 2.2 73
2018-07-03 23:00:00 22.5 0 Calma 18 Nordeste 0 973.2 2 69
2018-07-03 22:00:00 25 9 Nordeste 17 Nordeste 0 972.3 1.4 60
2018-07-03 21:00:00 28.5 7 Norte 21 Oeste 0 971.7 0.4 47
2018-07-03 20:00:00 30.3 12 Oeste 18 Oeste 0 971.2 -0.6 34
2018-07-03 19:00:00 31.4 10 Oeste 15 Sudoeste 0 970.9 -1.4 31
2018-07-03 18:00:00 31.1 6 Oeste 15 Oeste 0 971.3 -1.6 31
2018-07-03 17:00:00 30.5 10 Norte 17 Este 0 971.8 -1.7 34
2018-07-03 16:00:00 30.3 9 Nordeste 17 Este 0 972.3 -1.7 32
2018-07-03 15:00:00 29.1 5 Este 17 Nordeste 0 972.9 -1.5 35
2018-07-03 14:00:00 28.6 4 Oeste 18 Oeste 0 973.5 -1.3 38
2018-07-03 13:00:00 27.6 7 Nordeste 13 Este 0 974 -1.2 40
2018-07-03 12:00:00 25.7 10 Oeste 21 Oeste 0 974.4 -1 47
2018-07-03 11:00:00 23.9 11 Oeste 21 Oeste 0 974.8 -0.4 54
2018-07-03 10:00:00 21.9 15 Oeste 24 Oeste 0 975.2 0.3 59
2018-07-03 09:00:00 20.4 12 Oeste 17 Oeste 0 975.4 1 66
2018-07-03 08:00:00 18.5 10 Oeste 15 Oeste 0 975.2 0.9 73
2018-07-03 07:00:00 16.7 8 Oeste 13 Oeste 0 974.9 0.5 80
2018-07-03 06:00:00 16.9 9 Oeste 13 Oeste 0 974.4 0.1 80
2018-07-03 05:00:00 16.2 9 Oeste 11 Oeste 0 974.3 0.3 86
2018-07-03 04:00:00 16.6 0 Calma 8 Oeste 0 974.4 0.5 86
2018-07-03 03:00:00 17.2 0 Calma 5 Noroeste 0 974.3 0.8 83
2018-07-03 02:00:00 18.1 0 Calma 8 Oeste 0 974 0.9 78
2018-07-03 01:00:00 18.7 5 Oeste 8 Oeste 0 973.9 1.7 81
2018-07-03 00:00:00 19.8 3 Nordeste 13 Sudoeste 0 973.5 1.8 69
2018-07-02 23:00:00 22 4 Oeste 11 Sudoeste 0 973.1 1.6 62
2018-07-02 22:00:00 24.2 0 Calma 13 Oeste 0 972.2 1 48
2018-07-02 21:00:00 25.5 6 Oeste 9 Oeste 0 971.7 0.6 47
2018-07-02 20:00:00 26.6 7 Oeste 15 Oeste 0 971.5 0.3 42
2018-07-02 19:00:00 28.4 6 Oeste 9 Sudoeste 0 971.2 -0.1 38
2018-07-02 18:00:00 28.5 2 Oeste 11 Oeste 0 971.1 -0.1 42
2018-07-02 17:00:00 29.5 3 Oeste 13 Sudeste 0 971.2 -0.4 34
2018-07-02 16:00:00 27.9 3 Nordeste 15 Noroeste 0 971.3 -0.4 37
2018-07-02 15:00:00 27.6 4 Oeste 21 Noroeste 0 971.2 -0.7 38
2018-07-02 14:00:00 27.7 6 Oeste 18 Oeste 0 971.6 -0.4 37
2018-07-02 13:00:00 27 9 Oeste 17 Noroeste 0 971.7 -0.5 40
2018-07-02 12:00:00 25.6 9 Oeste 22 Noroeste 0 971.9 0 45
2018-07-02 11:00:00 23.7 12 Oeste 18 Oeste 0 972 0.2 50
2018-07-02 10:00:00 21.4 10 Oeste 18 Oeste 0 972.2 0.8 60
2018-07-02 09:00:00 19.6 6 Oeste 13 Oeste 0 971.9 0.7 68
2018-07-02 08:00:00 17.7 10 Oeste 17 Oeste 0 971.8 1 76
2018-07-02 07:00:00 16.3 9 Oeste 15 Oeste 0 971.4 0.8 81
2018-07-02 06:00:00 16.4 8 Oeste 17 Oeste 0 971.2 1.1 80
2018-07-02 05:00:00 17.5 12 Oeste 21 Sudoeste 0 970.8 0.9 74
2018-07-02 04:00:00 16.5 8 Oeste 15 Oeste 0 970.6 0.8 81
2018-07-02 03:00:00 17.9 6 Noroeste 21 Oeste 0 970.1 0.5 74
2018-07-02 02:00:00 19.2 10 Oeste 22 Oeste 0 969.9 1.4 67
2018-07-02 01:00:00 20.1 17 Oeste 37 Oeste 0 969.8 3 63
2018-07-02 00:00:00 22.3 14 Oeste 32 Oeste 0 969.6 3.4 60
2018-07-01 23:00:00 22.6 5 Oeste 26 Oeste 0 968.5 2.7 66
2018-07-01 22:00:00 24.8 3 Sudoeste 15 Oeste 0 966.8 1 55
2018-07-01 21:00:00 29.4 13 Sur 21 Sur 0 966.2 0.4 25
2018-07-01 20:00:00 31.1 12 Sur 18 Sur 0 965.8 0.1 24
2018-07-01 19:00:00 31.3 14 Sur 26 Sur 0 965.8 -0.5 22
2018-07-01 18:00:00 31.6 14 Sudoeste 28 Sudoeste 0 965.8 -1.2 25
2018-07-01 17:00:00 31.8 13 Sudoeste 26 Oeste 0 965.7 -1.9 27
2018-07-01 16:00:00 29.6 7 Este 21 Este 0 966.3 -2 47
2018-07-01 15:00:00 29.2 9 Nordeste 18 Norte 0 967 -1.6 50
2018-07-01 14:00:00 28.2 12 Este 24 Este 0 967.6 -0.9 49
2018-07-01 13:00:00 26.4 11 Este 22 Este 0 968.3 -0.2 55
2018-07-01 12:00:00 24.9 14 Este 26 Este 0 968.6 0 59
2018-07-01 11:00:00 24.3 12 Este 18 Este 0 968.5 0.1 67
2018-07-01 10:00:00 22.9 9 Este 17 Este 0 968.5 0.2 76
2018-07-01 09:00:00 20.6 6 Este 9 Este 0 968.6 0.6 84
2018-07-01 08:00:00 18.8 0 Calma 5 Nordeste 0 968.4 0.5 94
2018-07-01 07:00:00 16.8 0 Calma 8 Este 0 968.3 0 97
2018-07-01 06:00:00 17.4 6 Este 11 Nordeste 0 968 0 96
2018-07-01 05:00:00 18.5 4 Nordeste 11 Este 0 967.9 0.1 95
2018-07-01 04:00:00 18.7 0 Calma 9 Oeste 0 968.3 0.3 97
2018-07-01 03:00:00 18.7 2 Oeste 5 Oeste 0 968 0.3 96
2018-07-01 02:00:00 19.7 0 Calma 8 Norte 0 967.8 0.5 95
2018-07-01 01:00:00 20 6 Sudeste 11 Sudeste 0 968 1.6 95
2018-07-01 00:00:00 20.5 0 Calma 8 Nordeste 1.1 967.7 1.4 94
2018-06-30 23:00:00 20.6 0 Calma 8 Sudoeste 0 967.3 1.2 93
2018-06-30 22:00:00 20.9 8 Nordeste 17 Sudeste 0 966.4 0.1 91
2018-06-30 21:00:00 21.6 0 Calma 15 Este 0.4 966.3 -0.5 88
2018-06-30 20:00:00 22 6 Oeste 13 Este 0 966.1 1.1 81
2018-06-30 19:00:00 22.1 5 Sudeste 22 Sur 0 966.3 1.3 75
2018-06-30 18:00:00 21.2 9 Oeste 32 Oeste 1 966.8 1.3 89
2018-06-30 17:00:00 27.9 18 Sudeste 37 Sudeste 0 965 -1.4 43
2018-06-30 16:00:00 29.5 26 Sudeste 41 Sudeste 0 965 -2.6 39
2018-06-30 15:00:00 27.7 23 Este 37 Este 0 965.5 -2.1 50
2018-06-30 14:00:00 26.2 23 Este 33 Este 0 966.4 -1.3 57
2018-06-30 13:00:00 24.9 22 Este 39 Este 0 967.6 -0.2 66
2018-06-30 12:00:00 22.4 22 Este 41 Este 0 967.6 0 74
2018-06-30 11:00:00 23.1 27 Este 39 Este 0 967.7 -0.2 72
2018-06-30 10:00:00 22.4 30 Este 41 Este 0 967.8 0.2 73
2018-06-30 09:00:00 21.5 19 Este 28 Este 0 967.6 -0.2 77
2018-06-30 08:00:00 19.3 13 Este 21 Nordeste 0 967.9 -0.1 87
2018-06-30 07:00:00 17.1 6 Nordeste 18 Nordeste 0 967.6 -1 94
2018-06-30 06:00:00 17.7 9 Este 22 Nordeste 0 967.8 -0.3 92
2018-06-30 05:00:00 18.1 12 Este 26 Nordeste 0 968 -1.1 91
2018-06-30 04:00:00 18.2 16 Nordeste 22 Nordeste 0 968.6 0.1 91
2018-06-30 03:00:00 19 6 Este 30 Este 0.3 968.1 0 92
2018-06-30 02:00:00 19.3 12 Este 17 Este 0 969.1 0.9 90
2018-06-30 01:00:00 19.4 12 Este 17 Este 0 968.5 1 87
2018-06-30 00:00:00 19.6 12 Este 22 Este 0 968.1 0.6 84
2018-06-29 23:00:00 19.8 9 Este 15 Este 0 968.2 1 85
2018-06-29 22:00:00 20.6 3 Noroeste 15 Nordeste 0 967.5 -0.3 88
2018-06-29 21:00:00 21.3 4 Nordeste 11 Oeste 0 967.5 0.9 83
2018-06-29 20:00:00 20.5 4 Sudoeste 17 Noroeste 0.2 967.2 1 82
2018-06-29 19:00:00 20.2 14 Oeste 46 Oeste 0.7 967.8 1.1 81
2018-06-29 18:00:00 23.3 9 Oeste 13 Este 0 966.6 -0.5 73
2018-06-29 17:00:00 25.9 13 Este 26 Este 0 966.2 -1.9 57
2018-06-29 16:00:00 27.1 18 Este 33 Este 0 966.7 -2.1 51
2018-06-29 15:00:00 28.1 19 Este 37 Este 0 967.1 -2 47
2018-06-29 14:00:00 26.9 25 Este 33 Este 0 968.1 -1.5 56
2018-06-29 13:00:00 25.5 22 Este 32 Este 0 968.8 -1.3 62
2018-06-29 12:00:00 24.1 18 Este 28 Este 0 969.1 -0.8 65
2018-06-29 11:00:00 22.3 9 Nordeste 17 Este 0 969.6 -0.3 72
2018-06-29 10:00:00 21.4 6 Nordeste 9 Nordeste 0 970.1 0.5 72
2018-06-29 09:00:00 18.8 0 Calma -- -- 0 969.9 0.4 86
2018-06-29 08:00:00 17.7 0 Calma 4 Este 0 969.9 -0.3 94
2018-06-29 07:00:00 17.4 4 Este 9 Oeste 0.1 969.6 -0.4 93
2018-06-29 06:00:00 17.6 5 Oeste 11 Oeste 0 969.5 -1.3 94
2018-06-29 05:00:00 18 0 Calma 13 Sur 0 970.2 -0.3 88
2018-06-29 04:00:00 18 0 Calma 13 Sur 0 970 -0.6 89
2018-06-29 03:00:00 18.4 9 Sur 13 Sur 1.2 970.8 0.2 87
2018-06-29 02:00:00 19.1 4 Noroeste 18 Oeste 0 970.5 -0.2 78
2018-06-29 01:00:00 18.8 5 Oeste 9 Oeste 0 970.6 0.7 79
2018-06-29 00:00:00 19.4 4 Oeste 9 Oeste 0 970.6 1.2 75
2018-06-28 23:00:00 20.2 5 Oeste 9 Noroeste 0 970.7 1.8 71
2018-06-28 22:00:00 20.6 0 Calma 15 Noroeste 0 969.9 1.5 70
2018-06-28 21:00:00 21.2 4 Oeste 15 Noroeste 0 969.4 1.2 69
2018-06-28 20:00:00 22.4 10 Oeste 26 Oeste 0 968.9 0.3 69
2018-06-28 19:00:00 25.6 15 Oeste 28 Oeste 0 968.4 -1 57
2018-06-28 18:00:00 27.5 17 Oeste 30 Oeste 0 968.2 -1.8 50
2018-06-28 17:00:00 27.6 15 Oeste 28 Oeste 0 968.6 -2.5 50
2018-06-28 16:00:00 25.3 12 Oeste 32 Sudoeste 0 969.4 -2.5 56
2018-06-28 15:00:00 25.5 18 Oeste 30 Sudoeste 0 970 -2.6 55
2018-06-28 14:00:00 24.5 19 Oeste 28 Oeste 0 971.1 -1.9 57
2018-06-28 13:00:00 23.9 17 Oeste 24 Oeste 0 971.9 -1.6 59
2018-06-28 12:00:00 22.8 15 Oeste 24 Oeste 0 972.6 -1.1 63
2018-06-28 11:00:00 21.4 15 Oeste 24 Oeste 0 973 -0.7 68
2018-06-28 10:00:00 20.4 14 Oeste 24 Oeste 0 973.5 -0.3 72
2018-06-28 09:00:00 20 14 Oeste 24 Oeste 0 973.7 0 74
2018-06-28 08:00:00 19.3 11 Oeste 18 Oeste 0 973.7 0.2 78
2018-06-28 07:00:00 18.2 10 Oeste 17 Oeste 0 973.8 0.1 82
2018-06-28 06:00:00 18.8 12 Oeste 18 Oeste 0 973.7 -0.2 80
2018-06-28 05:00:00 19.1 13 Oeste 17 Oeste 0 973.5 -0.9 80
2018-06-28 04:00:00 19.1 12 Oeste 18 Oeste 0 973.7 -0.8 81
2018-06-28 03:00:00 18.6 10 Oeste 22 Sudoeste 0 973.9 -0.9 84
2018-06-28 02:00:00 18.5 10 Oeste 22 Oeste 0 974.4 -0.1 85
2018-06-28 01:00:00 18.7 14 Oeste 21 Oeste 0 974.5 0.5 84
2018-06-28 00:00:00 19.4 11 Oeste 18 Oeste 0 974.8 0.5 83
2018-06-27 23:00:00 20.5 8 Oeste 15 Noroeste 0 974.5 0.7 80
2018-06-27 22:00:00 21.3 5 Oeste 11 Sudoeste 0 974 1.1 78
2018-06-27 21:00:00 22 6 Oeste 17 Oeste 0 974.3 1.3 76
2018-06-27 20:00:00 22.6 3 Noroeste 15 Norte 0 973.8 1.4 72
2018-06-27 19:00:00 23.4 5 Oeste 26 Oeste 0 972.9 0.5 73
2018-06-27 18:00:00 23.4 15 Oeste 41 Oeste 0 973 -0.8 73
2018-06-27 17:00:00 26.6 17 Oeste 26 Oeste 0 972.4 -1 62
2018-06-27 16:00:00 28.9 14 Este 26 Nordeste 0 972.4 -1.5 52
2018-06-27 15:00:00 28.2 18 Este 24 Este 0 973.8 -0.8 51
2018-06-27 14:00:00 29.1 16 Este 24 Sudeste 0 973.4 -1.5 48
2018-06-27 13:00:00 28.8 13 Este 24 Este 0 973.9 -1.4 51
2018-06-27 12:00:00 27.7 12 Sudeste 18 Sudeste 0 974.6 -0.8 54
2018-06-27 11:00:00 25.9 6 Nordeste 15 Este 0 974.9 -0.6 59
2018-06-27 10:00:00 24.5 6 Este 13 Este 0 975.3 -0.2 63
2018-06-27 09:00:00 23.2 3 Este 9 Este 0 975.4 0.2 68
2018-06-27 08:00:00 20.1 0 Calma 8 Oeste 0 975.5 0.2 84
2018-06-27 07:00:00 18.2 5 Oeste 9 Este 0 975.5 0.2 92
2018-06-27 06:00:00 18.7 0 Calma 9 Oeste 0 975.2 -0.3 85
2018-06-27 05:00:00 19.8 0 Calma 11 Oeste 0 975.3 0.1 84
2018-06-27 04:00:00 21.1 8 Oeste 24 Oeste 0 975.3 0.4 77
2018-06-27 03:00:00 22.5 10 Oeste 15 Oeste 0 975.5 1.2 73
2018-06-27 02:00:00 23.1 4 Oeste 9 Noroeste 0 975.2 1.4 75
2018-06-27 01:00:00 25.3 0 Calma 8 Sudoeste 0 974.9 1.9 64
2018-06-27 00:00:00 25.3 6 Nordeste 13 Sudeste 0 974.3 1.9 66
2018-06-26 23:00:00 26.7 12 Este 17 Este 0 973.8 2 58
2018-06-26 22:00:00 27.2 8 Este 18 Este 0 973 1.4 44
2018-06-26 21:00:00 31 8 Sur 18 Sudeste 0 972.4 0.1 29
2018-06-26 20:00:00 32.4 13 Sudeste 21 Este 0 971.8 -0.9 27
2018-06-26 19:00:00 33.5 11 Sudeste 24 Este 0 971.6 -1.6 26
2018-06-26 18:00:00 33.2 11 Este 21 Este 0 972.3 -1.7 29
2018-06-26 17:00:00 32.6 13 Este 22 Sudeste 0 972.7 -1.8 30
2018-06-26 16:00:00 31.7 12 Este 22 Este 0 973.2 -1.8 33
2018-06-26 15:00:00 30.5 12 Este 24 Este 0 974 -1.5 35
2018-06-26 14:00:00 29 12 Este 24 Este 0 974.5 -1.2 43
2018-06-26 13:00:00 27.7 12 Este 22 Este 0 975 -1.1 49
2018-06-26 12:00:00 26.1 11 Este 18 Este 0 975.5 -0.4 52
2018-06-26 11:00:00 24.5 10 Este 18 Este 0 975.7 -0.1 61
2018-06-26 10:00:00 22.9 8 Este 13 Este 0 976.1 0.4 64
2018-06-26 09:00:00 20.3 0 Calma 4 Oeste 0 975.9 0.6 70
2018-06-26 08:00:00 17.2 4 Oeste 5 Oeste 0 975.8 0.9 82
2018-06-26 07:00:00 15.3 4 Oeste 8 Oeste 0 975.7 1 93
2018-06-26 06:00:00 14.7 0 Calma 9 Norte 0 975.3 0.4 89
2018-06-26 05:00:00 15.8 5 Este 15 Norte 0 974.9 -0.1 84
2018-06-26 04:00:00 17.9 0 Calma 9 Oeste 0 974.7 -0.4 79
2018-06-26 03:00:00 19.8 6 Oeste 17 Oeste 0 974.9 0.4 72
2018-06-26 02:00:00 18.7 5 Oeste 11 Oeste 0 975 1 82
2018-06-26 01:00:00 19.6 7 Oeste 9 Oeste 0 975.1 2 80
2018-06-26 00:00:00 21.5 3 Nordeste 17 Sudeste 0 974.5 2.1 69
2018-06-25 23:00:00 24.4 10 Sudeste 13 Sudeste 0 974 2.1 56
2018-06-25 22:00:00 25.7 9 Este 18 Sudoeste 0 973.1 1.3 54
2018-06-25 21:00:00 31.1 7 Sur 11 Este 0 972.4 0.3 33
2018-06-25 20:00:00 33.5 5 Noroeste 11 Norte 0 971.9 -0.5 27
2018-06-25 19:00:00 33.8 3 Noroeste 15 Oeste 0 971.8 -1.1 20
2018-06-25 18:00:00 33.5 5 Noroeste 17 Oeste 0 972.1 -1.4 25
2018-06-25 17:00:00 33 8 Oeste 15 Oeste 0 972.4 -1.5 26
2018-06-25 16:00:00 32.2 5 Oeste 13 Oeste 0 972.9 -1.6 24
2018-06-25 15:00:00 31.1 5 Nordeste 11 Norte 0 973.5 -1.4 24
2018-06-25 14:00:00 29.8 8 Oeste 13 Oeste 0 973.9 -1.2 27
2018-06-25 13:00:00 29.3 4 Nordeste 11 Nordeste 0 974.5 -0.8 26
2018-06-25 12:00:00 27 3 Oeste 11 Oeste 0 974.9 -0.4 34
2018-06-25 11:00:00 24.3 9 Oeste 17 Oeste 0 975.1 -0.2 49
2018-06-25 10:00:00 22 11 Oeste 17 Oeste 0 975.3 0.2 58
2018-06-25 09:00:00 19.6 10 Oeste 15 Oeste 0 975.3 0.6 67
2018-06-25 08:00:00 17.9 12 Oeste 17 Oeste 0 975.3 0.6 70
2018-06-25 07:00:00 15.9 8 Oeste 11 Oeste 0 975.1 0.4 78
2018-06-25 06:00:00 15.5 8 Oeste 9 Oeste 0 974.7 -0.3 78
2018-06-25 05:00:00 15.5 8 Oeste 11 Oeste 0 974.7 -0.5 79
2018-06-25 04:00:00 15.4 0 Calma 8 Oeste 0 974.7 -0.4 85
2018-06-25 03:00:00 15.9 3 Oeste 5 Oeste 0 975 0.2 85
2018-06-25 02:00:00 17.4 5 Oeste 8 Sudoeste 0 975.2 0.9 79
2018-06-25 01:00:00 18.8 0 Calma 4 Este 0 975.1 1.6 75
2018-06-25 00:00:00 20.7 0 Calma 17 Sudeste 0 974.8 1.9 60
2018-06-24 23:00:00 22.3 8 Este 18 Este 0 974.3 1.7 46
2018-06-24 22:00:00 24.9 13 Este 17 Este 0 973.5 1 36
2018-06-24 21:00:00 30.8 4 Norte 13 Norte 0 972.9 -0.2 38
2018-06-24 20:00:00 32.1 9 Noroeste 15 Noroeste 0 972.6 -0.8 32
2018-06-24 19:00:00 32.8 4 Oeste 15 Oeste 0 972.5 -1.4 26
2018-06-24 18:00:00 32.3 7 Oeste 13 Oeste 0 973.1 -1.5 29
2018-06-24 17:00:00 31.8 10 Oeste 11 Oeste 0 973.4 -1.8 29
2018-06-24 16:00:00 30.9 4 Este 13 Sudeste 0 973.9 -1.9 33
2018-06-24 15:00:00 29.4 2 Sudeste 13 Sudeste 0 974.6 -1.6 33
2018-06-24 14:00:00 27.7 6 Nordeste 13 Este 0 975.2 -1.4 37
2018-06-24 13:00:00 26.2 5 Sudeste 13 Este 0 975.8 -1.3 42
2018-06-24 12:00:00 24.4 5 Oeste 11 Este 0 976.2 -1.1 49
2018-06-24 11:00:00 22.7 0 Calma 11 Oeste 0 976.6 -0.3 57
2018-06-24 10:00:00 19.9 6 Oeste 9 Oeste 0 977.1 0.7 60
2018-06-24 09:00:00 17.4 4 Oeste 9 Sudoeste 0 977.3 1.2 72
2018-06-24 08:00:00 14.9 4 Oeste 8 Oeste 0 976.9 0.7 83
2018-06-24 07:00:00 11.5 0 Calma 4 Norte 0 976.4 0 93
2018-06-24 06:00:00 12.2 0 Calma 8 Sudoeste 0 976.1 -0.3 87
2018-06-24 05:00:00 13.3 0 Calma 8 Sudoeste 0 976.2 -0.2 86
2018-06-24 04:00:00 15.4 6 Oeste 13 Sudoeste 0 976.4 -0.1 77
2018-06-24 03:00:00 15.8 9 Oeste 11 Oeste 0 976.4 0.1 77
2018-06-24 02:00:00 16 5 Oeste 9 Oeste 0 976.4 0.3 83
2018-06-24 01:00:00 16.6 4 Norte 9 Nordeste 0 976.5 1 75
2018-06-24 00:00:00 17.1 0 Calma 9 Nordeste 0 976.3 1.1 72
2018-06-23 23:00:00 20.4 6 Oeste 11 Oeste 0 976.1 1.6 63
2018-06-23 22:00:00 23.8 6 Oeste 13 Noroeste 0 975.5 1.2 43
2018-06-23 21:00:00 28.5 3 Oeste 18 Norte 0 975.2 0.6 32
2018-06-23 20:00:00 28.8 10 Norte 21 Noroeste 0 974.5 -0.3 31
2018-06-23 19:00:00 29.7 9 Noroeste 21 Norte 0 974.3 -1.1 26
2018-06-23 18:00:00 30.1 5 Noroeste 17 Noroeste 0 974.6 -1.5 27
2018-06-23 17:00:00 29.9 9 Noroeste 17 Norte 0 974.8 -2.1 29
2018-06-23 16:00:00 29.3 9 Oeste 18 Oeste 0 975.4 -2.1 30
2018-06-23 15:00:00 28.2 10 Oeste 17 Sudoeste 0 976.1 -1.8 31
2018-06-23 14:00:00 27 12 Oeste 21 Oeste 0 976.9 -1.2 35
2018-06-23 13:00:00 25.5 12 Oeste 21 Oeste 0 977.5 -0.8 38
2018-06-23 12:00:00 24 10 Oeste 21 Oeste 0 977.9 -0.6 44
2018-06-23 11:00:00 22 12 Oeste 21 Oeste 0 978.1 -0.4 53
2018-06-23 10:00:00 19.8 13 Oeste 21 Noroeste 0 978.3 -0.1 65
2018-06-23 09:00:00 17.8 14 Oeste 22 Oeste 0 978.5 0.1 72
2018-06-23 08:00:00 16.2 12 Oeste 21 Oeste 0 978.5 0.2 79
2018-06-23 07:00:00 15.1 10 Oeste 15 Oeste 0 978.4 0.2 85
2018-06-23 06:00:00 15.2 10 Oeste 15 Oeste 0 978.4 -0.1 87
2018-06-23 05:00:00 15.4 8 Oeste 13 Oeste 0 978.3 -0.6 87
2018-06-23 04:00:00 15.7 7 Oeste 11 Oeste 0 978.2 -1 88
2018-06-23 03:00:00 16.5 9 Oeste 11 Oeste 0 978.5 -0.5 84
2018-06-23 02:00:00 17.6 10 Oeste 13 Oeste 0 978.9 0.2 79
2018-06-23 01:00:00 18.3 5 Oeste 17 Noroeste 0 979.2 1.5 74
2018-06-23 00:00:00 18.5 9 Oeste 13 Oeste 0 979 1.9 73
2018-06-22 23:00:00 18.7 0 Calma 13 Este 0 978.7 2.2 69
2018-06-22 22:00:00 21.4 3 Norte 17 Noroeste 0 977.7 1.5 59
2018-06-22 21:00:00 25 10 Norte 21 Norte 0 977.1 0.4 50
2018-06-22 20:00:00 26.6 9 Noroeste 21 Noroeste 0 976.5 -0.2 49
2018-06-22 19:00:00 27.3 10 Noroeste 21 Noroeste 0 976.2 -0.7 48
2018-06-22 18:00:00 27.8 10 Noroeste 26 Norte 0 976.7 -0.6 46
2018-06-22 17:00:00 27.7 12 Noroeste 22 Oeste 0 976.7 -1.2 48
2018-06-22 16:00:00 27.2 15 Oeste 24 Oeste 0 976.9 -1.5 50
2018-06-22 15:00:00 26.7 14 Oeste 24 Oeste 0 977.3 -1.3 53
2018-06-22 14:00:00 25.9 13 Oeste 24 Oeste 0 977.9 -0.9 54
2018-06-22 13:00:00 25.8 12 Oeste 22 Oeste 0 978.4 -0.4 55
2018-06-22 12:00:00 24.7 10 Oeste 22 Oeste 0 978.6 -0.1 61
2018-06-22 11:00:00 23 14 Oeste 22 Oeste 0 978.8 0.3 67
2018-06-22 10:00:00 22.6 13 Oeste 22 Noroeste 0 978.8 0.1 68
2018-06-22 09:00:00 21.3 14 Oeste 21 Oeste 0 978.7 0.3 76
2018-06-22 08:00:00 20.6 10 Oeste 18 Oeste 0 978.5 -0.1 78
2018-06-22 07:00:00 19.1 11 Oeste 17 Oeste 0 978.7 0.1 82
2018-06-22 06:00:00 19.1 12 Oeste 18 Oeste 0 978.4 -0.2 81
2018-06-22 05:00:00 19.1 11 Oeste 24 Oeste 0 978.6 -0.1 82
2018-06-22 04:00:00 19.2 10 Oeste 28 Oeste 0 978.6 -0.4 82
2018-06-22 03:00:00 19.6 12 Oeste 18 Oeste 0 978.6 -0.3 81
2018-06-22 02:00:00 20.3 13 Oeste 22 Oeste 0 978.7 0.4 77
2018-06-22 01:00:00 20.6 12 Oeste 21 Oeste 0 979 1.8 76
2018-06-22 00:00:00 21.2 12 Oeste 18 Oeste 0 978.9 2.4 74
2018-06-21 23:00:00 21.9 10 Oeste 22 Noroeste 0 978.3 2.7 70
2018-06-21 22:00:00 22.8 7 Noroeste 21 Oeste 0 977.2 2.7 67
2018-06-21 21:00:00 25.9 8 Noroeste 18 Noroeste 0 976.5 2.3 57
2018-06-21 20:00:00 28.5 11 Noroeste 24 Noroeste 0 975.6 1.1 52
2018-06-21 19:00:00 30.7 12 Norte 30 Norte 0 974.5 -0.4 47
2018-06-21 18:00:00 32 6 Este 21 Nordeste 0 974.2 -1.2 35
2018-06-21 17:00:00 33.3 10 Este 21 Este 0 974.5 -1.4 29
2018-06-21 16:00:00 32.7 11 Este 22 Este 0 974.9 -1.6 29
2018-06-21 15:00:00 31.8 14 Este 21 Este 0 975.4 -1.5 32
2018-06-21 14:00:00 30.3 10 Este 21 Este 0 975.9 -1.1 34
2018-06-21 13:00:00 28.9 10 Este 17 Este 0 976.5 -0.9 38
2018-06-21 12:00:00 27.1 4 Norte 11 Nordeste 0 976.9 -0.6 47
2018-06-21 11:00:00 25.2 2 Oeste 11 Oeste 0 977 -0.6 59
2018-06-21 10:00:00 23.1 9 Oeste 15 Oeste 0 977.4 0.2 70
2018-06-21 09:00:00 21.4 5 Oeste 9 Noroeste 0 977.5 0.6 77
2018-06-21 08:00:00 18.4 0 Calma -- -- 0 977.6 0.7 86
2018-06-21 07:00:00 15.7 0 Calma -- -- 0 977.2 0.5 95
2018-06-21 06:00:00 15.6 0 Calma 5 Sudoeste 0 976.9 0.3 93
2018-06-21 05:00:00 16.2 5 Sudoeste 8 Oeste 0 976.9 0.6 92
2018-06-21 04:00:00 16.8 0 Calma 5 Oeste 0 976.7 0.5 92
2018-06-21 03:00:00 17.6 0 Calma 5 Oeste 0 976.6 0.7 88
2018-06-21 02:00:00 17.6 0 Calma 5 Norte 0 976.3 0.7 85
2018-06-21 01:00:00 18.4 4 Oeste 9 Oeste 0 976.2 1.4 84
2018-06-21 00:00:00 19.4 4 Oeste 8 Oeste 0 975.9 1.7 81
2018-06-20 23:00:00 21.1 0 Calma 8 Noroeste 0 975.6 1.5 74
2018-06-20 22:00:00 22.6 0 Calma 5 Noroeste 0 974.8 0.8 66
2018-06-20 21:00:00 25 0 Calma 11 Sudeste 0 974.2 -0.2 56
2018-06-20 20:00:00 29.3 8 Sudeste 17 Este 0 974.1 -0.3 30
2018-06-20 19:00:00 29.4 9 Este 17 Sudeste 0 974 -0.7 35
2018-06-20 18:00:00 28.8 13 Este 28 Este 0 974.4 -0.6 42
2018-06-20 17:00:00 31.4 20 Este 32 Este 0 974.4 -1.2 34
2018-06-20 16:00:00 31.1 23 Este 39 Este 0 974.7 -1.4 36
2018-06-20 15:00:00 30.6 21 Este 32 Este 0 975 -1.6 40
2018-06-20 14:00:00 29.4 21 Este 33 Nordeste 0 975.6 -1.3 45
2018-06-20 13:00:00 27.9 20 Este 32 Este 0 976.1 -1.1 50
2018-06-20 12:00:00 26.5 21 Este 28 Nordeste 0 976.6 -0.7 54
2018-06-20 11:00:00 24.5 18 Este 26 Este 0 976.9 -0.2 61
2018-06-20 10:00:00 22.2 15 Este 18 Este 0 977.2 0.3 69
2018-06-20 09:00:00 20.7 9 Este 13 Este 0 977.3 0.6 70
2018-06-20 08:00:00 17.7 0 Calma 4 Oeste 0 977.1 0.4 89
2018-06-20 07:00:00 14.6 0 Calma -- -- 0 976.9 0.3 95
2018-06-20 06:00:00 15.1 0 Calma -- -- 0 976.7 0 95
2018-06-20 05:00:00 15.6 0 Calma -- -- 0 976.7 -0.1 95
2018-06-20 04:00:00 16.3 0 Calma -- -- 0 976.6 -0.5 94
2018-06-20 03:00:00 16.6 0 Calma 4 Noroeste 0 976.7 -0.4 92
2018-06-20 02:00:00 17.6 0 Calma 4 Oeste 0 976.8 0 88
2018-06-20 01:00:00 18.9 3 Sudoeste 5 Sudoeste 0 977.1 1.1 81
2018-06-20 00:00:00 20 5 Este 8 Este 0 977.1 1.5 73
2018-06-19 23:00:00 21.4 0 Calma 11 Nordeste 0 976.8 1.2 68
2018-06-19 22:00:00 23.4 8 Este 13 Este 0 976 0.4 61
2018-06-19 21:00:00 27.1 10 Este 21 Nordeste 0 975.6 -0.8 51
2018-06-19 20:00:00 28.6 16 Este 24 Sudeste 0 975.6 -1.5 43
2018-06-19 19:00:00 29.3 5 Noroeste 11 Noroeste 0 975.6 -2.2 40
2018-06-19 18:00:00 28.6 7 Este 15 Este 0 976.4 -2.1 40
2018-06-19 17:00:00 27.5 5 Oeste 11 Noroeste 0 977.1 -2 43
2018-06-19 16:00:00 26.3 4 Oeste 17 Oeste 0 977.8 -2 45
2018-06-19 15:00:00 25 5 Oeste 18 Sudoeste 0 978.5 -1.9 49
2018-06-19 14:00:00 23.6 10 Oeste 17 Oeste 0 979.1 -1.7 51
2018-06-19 13:00:00 22.5 8 Oeste 18 Oeste 0 979.8 -1.7 55
2018-06-19 12:00:00 21.2 10 Sudoeste 18 Oeste 0 980.4 -1.5 57
2018-06-19 11:00:00 20.2 10 Oeste 21 Oeste 0 980.8 -1 60
2018-06-19 10:00:00 19.3 12 Oeste 21 Sudoeste 0 981.5 -0.4 63
2018-06-19 09:00:00 18.4 10 Oeste 15 Oeste 0 981.9 0 67
2018-06-19 08:00:00 16.3 2 Oeste 8 Oeste 0 981.8 -0.1 80
2018-06-19 07:00:00 13.9 5 Oeste 11 Noroeste 0 981.9 -0.2 87
2018-06-19 06:00:00 14.5 8 Oeste 13 Oeste 0 981.9 -0.3 83
2018-06-19 05:00:00 15.6 9 Oeste 15 Oeste 0 981.9 -0.6 79
2018-06-19 04:00:00 15.8 11 Oeste 15 Sudoeste 0 982.1 -0.6 78
2018-06-19 03:00:00 15.6 10 Oeste 18 Oeste 0 982.2 -0.8 79
2018-06-19 02:00:00 16.3 9 Oeste 21 Oeste 0 982.5 -0.2 76
2018-06-19 01:00:00 16.9 11 Oeste 21 Oeste 0 982.7 0.4 74
2018-06-19 00:00:00 17.4 12 Oeste 24 Noroeste 0 983 0.8 73
2018-06-18 23:00:00 18.2 10 Noroeste 30 Noroeste 0 982.7 0.7 70
2018-06-18 22:00:00 18.7 10 Noroeste 30 Oeste 0 982.3 0.6 68
2018-06-18 21:00:00 20 15 Oeste 32 Noroeste 0 982.2 0.2 64
2018-06-18 20:00:00 21.2 18 Noroeste 33 Oeste 0 982 -0.2 58
2018-06-18 19:00:00 23.2 13 Noroeste 32 Noroeste 0 981.7 -0.9 51
2018-06-18 18:00:00 22.7 14 Noroeste 26 Norte 0 982 -0.6 53
2018-06-18 17:00:00 23.5 16 Noroeste 32 Noroeste 0 982.2 -1 50
2018-06-18 16:00:00 23.1 14 Noroeste 26 Noroeste 0 982.6 -0.8 52
2018-06-18 15:00:00 22.6 12 Oeste 28 Noroeste 0 982.6 -0.9 56
2018-06-18 14:00:00 21.2 14 Noroeste 26 Noroeste 0 983.2 -0.2 61
2018-06-18 13:00:00 21.5 13 Noroeste 28 Noroeste 0 983.4 -0.1 60
2018-06-18 12:00:00 21.3 13 Noroeste 26 Oeste 0 983.5 0 60
2018-06-18 11:00:00 19.9 15 Oeste 22 Oeste 0 983.4 0 59
2018-06-18 10:00:00 18.9 15 Oeste 24 Oeste 0 983.5 0.3 61
2018-06-18 09:00:00 17.2 13 Oeste 21 Oeste 0 983.5 0.6 64
2018-06-18 08:00:00 14.8 12 Oeste 21 Oeste 0 983.4 0.6 72
2018-06-18 07:00:00 13.8 7 Oeste 17 Oeste 0 983.2 0.3 78
2018-06-18 06:00:00 13.6 2 Oeste 17 Oeste 0 982.9 -0.1 76
2018-06-18 05:00:00 13.8 10 Oeste 17 Oeste 0 982.8 -0.4 75
2018-06-18 04:00:00 14.9 12 Oeste 21 Oeste 0 982.9 -0.4 69
2018-06-18 03:00:00 14.4 9 Oeste 13 Oeste 0 983 -0.3 70
2018-06-18 02:00:00 14.7 6 Oeste 9 Sudoeste 0 983.2 0.2 71
2018-06-18 01:00:00 15.8 3 Sudoeste 13 Oeste 0 983.3 1.2 59
2018-06-18 00:00:00 17.3 9 Sudoeste 15 Oeste 0 983.3 1.6 47
2018-06-17 23:00:00 18.2 7 Sudoeste 13 Sur 0 983 1.8 47
2018-06-17 22:00:00 19.4 6 Sudoeste 15 Sur 0 982.1 1.7 47
2018-06-17 21:00:00 22.7 3 Norte 26 Norte 0 981.7 1.5 39
2018-06-17 20:00:00 23.2 13 Norte 30 Noroeste 0 981.2 0.8 42
2018-06-17 19:00:00 24.4 14 Norte 26 Norte 0 980.4 -0.1 40
2018-06-17 18:00:00 25.1 9 Noroeste 17 Oeste 0 980.2 -0.6 37
2018-06-17 17:00:00 24.7 10 Noroeste 21 Oeste 0 980.4 -1 39
2018-06-17 16:00:00 23.9 10 Oeste 22 Noroeste 0 980.5 -1.3 43
2018-06-17 15:00:00 22.9 11 Noroeste 22 Oeste 0 980.8 -1.2 44
2018-06-17 14:00:00 21.7 12 Noroeste 24 Oeste 0 981.4 -0.6 50
2018-06-17 13:00:00 20.4 11 Oeste 22 Oeste 0 981.8 0 55
2018-06-17 12:00:00 18.6 15 Oeste 26 Oeste 0 982 0.3 61
2018-06-17 11:00:00 18.3 18 Oeste 26 Oeste 0 982 1.2 65
2018-06-17 10:00:00 17.1 15 Sudoeste 22 Oeste 0 981.8 1.5 69
2018-06-17 09:00:00 15.1 10 Oeste 21 Oeste 0 981.7 1.5 76
2018-06-17 08:00:00 14 11 Oeste 15 Oeste 0 980.8 0.7 80
2018-06-17 07:00:00 12.8 3 Oeste 17 Oeste 0 980.3 0.2 84
2018-06-17 06:00:00 12.6 11 Oeste 13 Oeste 0 980.2 -0.1 84
2018-06-17 05:00:00 12.8 8 Oeste 13 Oeste 0 980.1 -0.2 83
2018-06-17 04:00:00 13.1 6 Oeste 11 Oeste 0 980.1 -0.2 82
2018-06-17 03:00:00 14.1 10 Oeste 21 Oeste 0 980.3 0.5 77
2018-06-17 02:00:00 14.3 9 Oeste 15 Oeste 0 980.3 1 77
2018-06-17 01:00:00 15 7 Oeste 13 Sudoeste 0 980.3 2.5 71
2018-06-17 00:00:00 15.8 6 Oeste 17 Oeste 0 979.8 2.3 69